createdAt,value
2019-05-13T00:00:00.000Z,99810
2019-05-13T00:05:00.000Z,99819
2019-05-13T00:10:00.000Z,99808
2019-05-13T00:15:00.000Z,99808
2019-05-13T00:20:00.000Z,99810
2019-05-13T00:25:00.000Z,99809
2019-05-13T00:30:00.000Z,99796
2019-05-13T00:35:00.000Z,99818
2019-05-13T00:40:00.000Z,99824
2019-05-13T00:45:00.000Z,99815
2019-05-13T00:50:00.000Z,99817
2019-05-13T00:55:00.000Z,99823
2019-05-13T01:00:00.000Z,99830
2019-05-13T01:05:00.000Z,99839
2019-05-13T01:10:00.000Z,99833
2019-05-13T01:16:00.000Z,99828
2019-05-13T01:21:00.000Z,99831
2019-05-13T01:26:00.000Z,99833
2019-05-13T01:31:00.000Z,99838
2019-05-13T01:36:00.000Z,99832
2019-05-13T01:41:00.000Z,99830
2019-05-13T01:46:00.000Z,99816
2019-05-13T01:51:00.000Z,99820
2019-05-13T01:56:00.000Z,99841
2019-05-13T02:01:00.000Z,99829
2019-05-13T02:06:00.000Z,99831
2019-05-13T02:11:00.000Z,99826
2019-05-13T02:16:00.000Z,99840
2019-05-13T02:21:00.000Z,99842
2019-05-13T02:26:00.000Z,99853
2019-05-13T02:31:00.000Z,99849
2019-05-13T02:36:00.000Z,99843
2019-05-13T02:41:00.000Z,99853
2019-05-13T02:46:00.000Z,99851
2019-05-13T02:51:00.000Z,99851
2019-05-13T02:56:00.000Z,99823
2019-05-13T03:01:00.000Z,99838
2019-05-13T03:06:00.000Z,99858
2019-05-13T03:11:00.000Z,99865
2019-05-13T03:16:00.000Z,99857
2019-05-13T03:22:00.000Z,99860
2019-05-13T03:27:00.000Z,99868
2019-05-13T03:32:00.000Z,99869
2019-05-13T03:37:00.000Z,99880
2019-05-13T03:42:00.000Z,99879
2019-05-13T03:47:00.000Z,99876
2019-05-13T03:52:00.000Z,99889
2019-05-13T03:57:00.000Z,99888
2019-05-13T04:02:00.000Z,99888
2019-05-13T04:07:00.000Z,99897
2019-05-13T04:12:00.000Z,99894
2019-05-13T04:17:00.000Z,99894
2019-05-13T04:22:00.000Z,99905
2019-05-13T04:27:00.000Z,99908
2019-05-13T04:32:00.000Z,99900
2019-05-13T04:37:00.000Z,99915
2019-05-13T04:42:00.000Z,99913
2019-05-13T04:47:00.000Z,99913
2019-05-13T04:52:00.000Z,99922
2019-05-13T04:57:00.000Z,99920
2019-05-13T05:02:00.000Z,99923
2019-05-13T05:07:00.000Z,99930
2019-05-13T05:12:00.000Z,99929
2019-05-13T05:17:00.000Z,99912
2019-05-13T05:22:00.000Z,99920
2019-05-13T05:27:00.000Z,99932
2019-05-13T05:33:00.000Z,99943
2019-05-13T05:38:00.000Z,99944
2019-05-13T05:43:00.000Z,99949
2019-05-13T05:48:00.000Z,99965
2019-05-13T05:53:00.000Z,99973
2019-05-13T05:58:00.000Z,99967
2019-05-13T06:03:00.000Z,99967
2019-05-13T06:08:00.000Z,99969
2019-05-13T06:13:00.000Z,99968
2019-05-13T06:18:00.000Z,99965
2019-05-13T06:23:00.000Z,99988
2019-05-13T06:28:00.000Z,99961
2019-05-13T06:33:00.000Z,99965
2019-05-13T06:38:00.000Z,99973
2019-05-13T06:43:00.000Z,99981
2019-05-13T06:48:00.000Z,99973
2019-05-13T06:53:00.000Z,99975
2019-05-13T06:58:00.000Z,99987
2019-05-13T07:03:00.000Z,99985
2019-05-13T07:08:00.000Z,99982
2019-05-13T07:13:00.000Z,99979
2019-05-13T07:18:00.000Z,99956
2019-05-13T07:23:00.000Z,99978
2019-05-13T07:28:00.000Z,99974
2019-05-13T07:33:00.000Z,99976
2019-05-13T07:38:00.000Z,99980
2019-05-13T07:43:00.000Z,99993
2019-05-13T07:48:00.000Z,99982
2019-05-13T07:53:00.000Z,99984
2019-05-13T07:58:00.000Z,100008
2019-05-13T08:03:00.000Z,99999
2019-05-13T08:08:00.000Z,100003
2019-05-13T08:13:00.000Z,100003
2019-05-13T08:18:00.000Z,100014
2019-05-13T08:23:00.000Z,100017
2019-05-13T08:28:00.000Z,100009
2019-05-13T08:34:00.000Z,100021
2019-05-13T08:39:00.000Z,100017
2019-05-13T08:44:00.000Z,100018
2019-05-13T08:49:00.000Z,100016
2019-05-13T08:54:00.000Z,100034
2019-05-13T08:59:00.000Z,100027
2019-05-13T09:04:00.000Z,100034
2019-05-13T09:09:00.000Z,100020
2019-05-13T09:14:00.000Z,100025
2019-05-13T09:19:00.000Z,100018
2019-05-13T09:24:00.000Z,100018
2019-05-13T09:29:00.000Z,100019
2019-05-13T09:34:00.000Z,100038
2019-05-13T09:39:00.000Z,100022
2019-05-13T09:44:00.000Z,100037
2019-05-13T09:49:00.000Z,100042
2019-05-13T09:54:00.000Z,100048
2019-05-13T09:59:00.000Z,100032
2019-05-13T10:04:00.000Z,100033
2019-05-13T10:09:00.000Z,100037
2019-05-13T10:14:00.000Z,100054
2019-05-13T10:19:00.000Z,100057
2019-05-13T10:24:00.000Z,100051
2019-05-13T10:29:00.000Z,100047
2019-05-13T10:34:00.000Z,100044
2019-05-13T10:39:00.000Z,100034
2019-05-13T10:44:00.000Z,100039
2019-05-13T10:49:00.000Z,100034
2019-05-13T10:54:00.000Z,100030
2019-05-13T11:00:00.000Z,100028
2019-05-13T11:05:00.000Z,100026
2019-05-13T11:10:00.000Z,100022
2019-05-13T11:15:00.000Z,100017
2019-05-13T11:20:00.000Z,100016
2019-05-13T11:25:00.000Z,100015
2019-05-13T11:30:00.000Z,100014
2019-05-13T11:35:00.000Z,100013
2019-05-13T11:40:00.000Z,100021
2019-05-13T11:45:00.000Z,100017
2019-05-13T11:50:00.000Z,100011
2019-05-13T11:55:00.000Z,100006
2019-05-13T12:00:00.000Z,100015
2019-05-13T12:05:00.000Z,100000
2019-05-13T12:10:00.000Z,100002
2019-05-13T12:15:00.000Z,100005
2019-05-13T12:20:00.000Z,99994
2019-05-13T12:25:00.000Z,99992
2019-05-13T12:30:00.000Z,99983
2019-05-13T12:35:00.000Z,99977
2019-05-13T12:40:00.000Z,99971
2019-05-13T12:45:00.000Z,99977
2019-05-13T12:50:00.000Z,99973
2019-05-13T12:55:00.000Z,99978
2019-05-13T13:01:00.000Z,99975
2019-05-13T13:06:00.000Z,99967
2019-05-13T13:11:00.000Z,99971
2019-05-13T13:16:00.000Z,99981
2019-05-13T13:21:00.000Z,99968
2019-05-13T13:26:00.000Z,99974
2019-05-13T13:31:00.000Z,99964
2019-05-13T13:36:00.000Z,99964
2019-05-13T13:41:00.000Z,99965
2019-05-13T13:46:00.000Z,99968
2019-05-13T13:51:00.000Z,99954
2019-05-13T13:56:00.000Z,99952
2019-05-13T14:01:00.000Z,99957
2019-05-13T14:06:00.000Z,99966
2019-05-13T14:12:00.000Z,99950
2019-05-13T14:17:00.000Z,99942
2019-05-13T14:22:00.000Z,99944
2019-05-13T14:27:00.000Z,99947
2019-05-13T14:32:00.000Z,99930
2019-05-13T14:37:00.000Z,99955
2019-05-13T14:42:00.000Z,99955
2019-05-13T14:47:00.000Z,99964
2019-05-13T14:52:00.000Z,99962
2019-05-13T14:57:00.000Z,99961
2019-05-13T15:02:00.000Z,99968
2019-05-13T15:07:00.000Z,99967
2019-05-13T15:12:00.000Z,99975
2019-05-13T15:17:00.000Z,99974
2019-05-13T15:22:00.000Z,99967
2019-05-13T15:27:00.000Z,99973
2019-05-13T15:32:00.000Z,99971
2019-05-13T15:37:00.000Z,99971
2019-05-13T15:43:00.000Z,99966
2019-05-13T15:48:00.000Z,99971
2019-05-13T15:53:00.000Z,99978
2019-05-13T15:58:00.000Z,99980
2019-05-13T16:03:00.000Z,99979
2019-05-13T16:08:00.000Z,99982
2019-05-13T16:13:00.000Z,99989
2019-05-13T16:18:00.000Z,99994
2019-05-13T16:23:00.000Z,100006
2019-05-13T16:28:00.000Z,100007
2019-05-13T16:33:00.000Z,100016
2019-05-13T16:38:00.000Z,100008
2019-05-13T16:43:00.000Z,100009
2019-05-13T16:48:00.000Z,99999
2019-05-13T16:53:00.000Z,100004
2019-05-13T16:58:00.000Z,100014
2019-05-13T17:03:00.000Z,100018
2019-05-13T17:08:00.000Z,100026
2019-05-13T17:13:00.000Z,100027
2019-05-13T17:18:00.000Z,100039
2019-05-13T17:23:00.000Z,100028
2019-05-13T17:28:00.000Z,100041
2019-05-13T17:33:00.000Z,100045
2019-05-13T17:38:00.000Z,100042
2019-05-13T17:43:00.000Z,100045
2019-05-13T17:48:00.000Z,100049
2019-05-13T17:53:00.000Z,100053
2019-05-13T17:58:00.000Z,100061
2019-05-13T18:03:00.000Z,100053
2019-05-13T18:08:00.000Z,100056
2019-05-13T18:13:00.000Z,100059
2019-05-13T18:18:00.000Z,100075
2019-05-13T18:23:00.000Z,100064
2019-05-13T18:28:00.000Z,100065
2019-05-13T18:33:00.000Z,100071
2019-05-13T18:38:00.000Z,100065
2019-05-13T18:43:00.000Z,100066
2019-05-13T18:48:00.000Z,100065
2019-05-13T18:54:00.000Z,100062
2019-05-13T18:59:00.000Z,100055
2019-05-13T19:04:00.000Z,100061
2019-05-13T19:09:00.000Z,100058
2019-05-13T19:14:00.000Z,100055
2019-05-13T19:19:00.000Z,100043
2019-05-13T19:24:00.000Z,100053
2019-05-13T19:29:00.000Z,100046
2019-05-13T19:34:00.000Z,100043
2019-05-13T19:39:00.000Z,100040
2019-05-13T19:44:00.000Z,100037
2019-05-13T19:49:00.000Z,100033
2019-05-13T19:54:00.000Z,100042
2019-05-13T19:59:00.000Z,100027
2019-05-13T20:04:00.000Z,100043
2019-05-13T20:09:00.000Z,100040
2019-05-13T20:14:00.000Z,100038
2019-05-13T20:19:00.000Z,100031
2019-05-13T20:24:00.000Z,100035
2019-05-13T20:29:00.000Z,100046
2019-05-13T20:34:00.000Z,100042
2019-05-13T20:39:00.000Z,100037
2019-05-13T20:44:00.000Z,100056
2019-05-13T20:49:00.000Z,100047
2019-05-13T20:55:00.000Z,100057
2019-05-13T21:00:00.000Z,100042
2019-05-13T21:05:00.000Z,100029
2019-05-13T21:10:00.000Z,100016
2019-05-13T21:15:00.000Z,100000
2019-05-13T21:20:00.000Z,100005
2019-05-13T21:25:00.000Z,100010
2019-05-13T21:30:00.000Z,100016
2019-05-13T21:35:00.000Z,100012
2019-05-13T21:40:00.000Z,100014
2019-05-13T21:45:00.000Z,100007
2019-05-13T21:50:00.000Z,99997
2019-05-13T21:55:00.000Z,99994
2019-05-13T22:00:00.000Z,99997
2019-05-13T22:05:00.000Z,99997
2019-05-13T22:10:00.000Z,99989
2019-05-13T22:15:00.000Z,99981
2019-05-13T22:20:00.000Z,99978
2019-05-13T22:25:00.000Z,99977
2019-05-13T22:30:00.000Z,99982
2019-05-13T22:35:00.000Z,99978
2019-05-13T22:40:00.000Z,99981
2019-05-13T22:45:00.000Z,99969
2019-05-13T22:50:00.000Z,99964
2019-05-13T22:55:00.000Z,99948
2019-05-13T23:00:00.000Z,99949
2019-05-13T23:06:00.000Z,99947
2019-05-13T23:11:00.000Z,99935
2019-05-13T23:16:00.000Z,99940
2019-05-13T23:21:00.000Z,99927
2019-05-13T23:26:00.000Z,99935
2019-05-13T23:31:00.000Z,99920
2019-05-13T23:36:00.000Z,99913
2019-05-13T23:41:00.000Z,99910
2019-05-13T23:46:00.000Z,99911
2019-05-13T23:51:00.000Z,99891
2019-05-13T23:56:00.000Z,99901
